Weather reports worldwide

Advertisment
Leuchtturm Alte Weser, Germany (10124): temperature & dewpoint: 17.10.2019 06:00:00 - 23.10.2019 06:00:00 (CEST)Leuchtturm Alte Weser, Germany (10124): wind speed & gusts: 17.10.2019 06:00:00 - 23.10.2019 06:00:00 (CEST)Leuchtturm Alte Weser, Germany (10124): wind direction: 17.10.2019 06:00:00 - 23.10.2019 06:00:00 (CEST)Leuchtturm Alte Weser, Germany (10124): reduced air pressure: 17.10.2019 06:00:00 - 23.10.2019 06:00:00 (CEST)Leuchtturm Alte Weser, Germany (10124): sunshine duration: 17.10.2019 06:00:00 - 23.10.2019 06:00:00 (CEST)
Date & Time tt [°C] td [°C] ff [km/h] ff [kn] fx [km/h] fx [kn] dd ppp [hPa] sd [min]
23.10.2019 06:00:00 - - - - - - - - -
23.10.2019 05:00:00 11,8 9,5 11 6 - - SSW 1021,0 0
23.10.2019 04:00:00 11,7 9,5 14 8 - - SW 1021,4 0
23.10.2019 03:00:00 11,9 9,9 18 10 - - WSW 1022,0 0
23.10.2019 02:00:00 12,2 10,0 14 8 - - SW 1022,4 0
23.10.2019 01:00:00 12,4 9,4 14 8 - - WSW 1022,6 0
23.10.2019 00:00:00 12,4 10,0 14 8 - - SW 1022,5 0
22.10.2019 23:00:00 12,6 10,0 11 6 - - WSW 1022,4 0
22.10.2019 22:00:00 12,7 10,1 22 12 - - SW 1022,8 0
22.10.2019 21:00:00 12,9 10,0 22 12 - - WSW 1022,5 0
22.10.2019 20:00:00 13,1 10,1 22 12 - - WSW 1022,7 0
22.10.2019 19:00:00 13,2 10,4 25 14 - - W 1022,6 0
22.10.2019 18:00:00 13,5 11,1 25 14 - - W 1022,0 12
22.10.2019 17:00:00 13,7 10,9 22 12 - - W 1021,9 54
22.10.2019 16:00:00 13,8 11,3 25 14 - - WSW 1022,0 24
22.10.2019 15:00:00 13,4 11,5 25 14 - - SW 1022,1 18
22.10.2019 14:00:00 12,9 11,7 29 16 - - SW 1022,1 6
22.10.2019 13:00:00 12,5 11,6 32 18 - - SW 1022,0 0
22.10.2019 12:00:00 12,1 11,3 36 19 - - SW 1021,7 0
22.10.2019 11:00:00 11,8 10,9 36 19 - - SW 1021,5 0
22.10.2019 10:00:00 11,8 10,7 32 18 - - SW 1021,0 6
22.10.2019 09:00:00 11,6 10,1 36 19 - - SW 1019,8 18
22.10.2019 08:00:00 11,6 10,0 36 19 - - SW 1019,5 0
22.10.2019 07:00:00 12,0 10,7 29 16 - - SW 1019,4 0
22.10.2019 06:00:00 12,1 10,3 32 18 - - SW 1019,1 0
22.10.2019 05:00:00 12,2 10,2 25 14 - - SSW 1019,2 0
22.10.2019 04:00:00 12,5 10,2 29 16 - - SSW 1019,3 0
22.10.2019 03:00:00 12,5 9,7 25 14 - - SSW 1019,6 0
22.10.2019 02:00:00 12,5 9,3 25 14 - - SW 1019,6 0
22.10.2019 01:00:00 12,3 10,1 25 14 - - SSW 1019,6 0
22.10.2019 00:00:00 12,5 10,0 25 14 - - SSW 1019,3 0
21.10.2019 23:00:00 12,8 10,4 29 16 - - SSW 1018,9 0
21.10.2019 22:00:00 13,5 11,5 22 12 - - SSW 1018,7 0
21.10.2019 21:00:00 14,2 12,7 25 14 - - S 1018,3 0
21.10.2019 20:00:00 14,5 13,1 14 8 - - SSW 1018,2 0
21.10.2019 19:00:00 14,2 13,2 11 6 - - SSW 1017,6 0
21.10.2019 18:00:00 14,1 13,2 11 6 - - SW 1017,0 18
21.10.2019 17:00:00 13,9 13,3 14 8 - - SW 1016,4 0
21.10.2019 16:00:00 13,0 13,0 14 8 - - S 1016,4 0
21.10.2019 15:00:00 12,6 12,6 14 8 - - SSE 1016,1 0
21.10.2019 14:00:00 12,3 12,3 14 8 - - ESE 1015,8 0
21.10.2019 13:00:00 12,0 12,0 14 8 - - SE 1016,1 0
21.10.2019 12:00:00 11,7 11,7 22 12 - - ENE 1015,5 0
21.10.2019 11:00:00 11,5 11,5 29 16 - - ENE 1015,5 0
21.10.2019 10:00:00 11,4 11,1 40 21 - - ENE 1014,7 0
21.10.2019 09:00:00 11,4 11,0 40 21 - - NE 1014,5 0
21.10.2019 08:00:00 11,5 10,7 36 19 - - NE 1014,5 0
21.10.2019 07:00:00 11,1 10,8 36 19 - - NE 1014,2 0
21.10.2019 06:00:00 11,7 10,0 40 21 - - ENE 1013,7 0
21.10.2019 05:00:00 12,4 9,8 40 21 - - ENE 1013,4 0
21.10.2019 04:00:00 12,4 9,7 36 19 - - ENE 1013,1 0
21.10.2019 03:00:00 12,6 9,3 29 16 - - ENE 1013,5 0
21.10.2019 02:00:00 12,4 10,0 25 14 - - ENE 1013,4 0
21.10.2019 01:00:00 12,4 10,6 18 10 - - NE 1013,3 0
21.10.2019 00:00:00 12,5 9,2 14 8 - - ENE 1013,5 0
20.10.2019 23:00:00 12,3 11,7 11 6 - - ENE 1013,3 0
20.10.2019 22:00:00 12,4 11,9 11 6 - - E 1012,9 0
20.10.2019 21:00:00 12,6 11,8 7 4 - - ESE 1012,4 0
20.10.2019 20:00:00 12,7 11,3 7 4 - - SSE 1011,9 0
20.10.2019 19:00:00 12,7 11,3 11 6 - - SSE 1011,5 0
20.10.2019 18:00:00 12,5 11,0 14 8 - - S 1011,1 0
20.10.2019 17:00:00 12,3 11,1 14 8 - - S 1010,6 0
20.10.2019 16:00:00 12,5 11,4 14 8 - - SSE 1010,5 0
20.10.2019 15:00:00 12,3 11,1 14 8 - - S 1010,2 0
20.10.2019 14:00:00 12,0 10,9 11 6 - - S 1010,1 0
20.10.2019 13:00:00 11,4 10,3 14 8 - - SSW 1010,0 0
20.10.2019 12:00:00 11,3 10,2 18 10 - - SSW 1009,5 12
20.10.2019 11:00:00 11,2 10,2 22 12 - - SSW 1009,0 48
20.10.2019 10:00:00 10,7 10,2 22 12 - - S 1008,3 18
20.10.2019 09:00:00 11,0 10,2 22 12 - - SSW 1008,1 0
20.10.2019 08:00:00 11,0 10,2 25 14 - - SSW 1007,3 0
20.10.2019 07:00:00 11,1 10,3 25 14 - - SSW 1006,8 0
20.10.2019 06:00:00 11,2 10,3 25 14 - - SW 1006,3 0
20.10.2019 05:00:00 11,4 10,4 29 16 - - SSW 1005,9 0
20.10.2019 04:00:00 11,4 10,5 32 18 - - SSW 1006,0 0
20.10.2019 03:00:00 11,6 10,5 36 19 - - SSW 1006,0 0
20.10.2019 02:00:00 11,9 11,0 32 18 - - SSW 1005,8 0
20.10.2019 01:00:00 11,9 10,6 32 18 - - SSW 1005,6 0
20.10.2019 00:00:00 11,8 10,5 29 16 - - SSW 1005,4 0
19.10.2019 23:00:00 12,0 10,5 29 16 - - SSW 1004,9 0
19.10.2019 22:00:00 12,2 10,3 32 18 - - SSW 1004,5 0
19.10.2019 21:00:00 12,7 11,4 29 16 - - SSW 1004,1 0
19.10.2019 20:00:00 12,9 11,7 25 14 - - S 1003,9 0
19.10.2019 19:00:00 12,9 11,2 25 14 - - S 1003,5 6
19.10.2019 18:00:00 13,1 10,8 32 18 - - SSW 1002,8 6
19.10.2019 17:00:00 12,9 11,9 29 16 - - SSW 1002,7 0
19.10.2019 16:00:00 13,0 11,7 32 18 - - S 1002,6 0
19.10.2019 15:00:00 13,2 10,9 29 16 - - S 1003,1 0
19.10.2019 14:00:00 13,1 10,5 29 16 - - S 1003,2 6
19.10.2019 13:00:00 12,5 10,4 32 18 - - S 1003,5 0
19.10.2019 12:00:00 12,1 9,9 32 18 - - S 1003,8 0
19.10.2019 11:00:00 11,8 9,6 40 21 - - S 1003,5 0
19.10.2019 10:00:00 11,7 9,5 40 21 47 25 SSW 1003,3 0
19.10.2019 09:00:00 11,5 9,1 43 23 54 29 S 1003,3 0
19.10.2019 08:00:00 11,5 8,2 43 23 - - S 1003,3 0
19.10.2019 07:00:00 11,6 8,2 47 25 61 33 S 1003,4 0
19.10.2019 06:00:00 11,6 8,3 47 25 58 31 S 1003,5 0
19.10.2019 05:00:00 11,6 8,2 50 27 - - S 1003,5 0
19.10.2019 04:00:00 11,6 8,0 47 25 58 31 S 1003,6 0
19.10.2019 03:00:00 11,8 8,2 47 25 58 31 S 1003,8 0
19.10.2019 02:00:00 11,9 7,7 43 23 - - SSW 1003,9 0
19.10.2019 01:00:00 12,3 8,1 50 27 65 35 SW 1004,0 0
19.10.2019 00:00:00 12,1 8,2 54 29 65 35 SSW 1003,5 0
18.10.2019 23:00:00 12,2 8,1 50 27 - - SSW 1003,2 0
18.10.2019 22:00:00 12,3 8,3 54 29 65 35 SSW 1003,0 0
18.10.2019 21:00:00 12,4 8,6 50 27 68 37 SSW 1002,7 0
18.10.2019 20:00:00 12,6 8,8 54 29 - - SSW 1002,3 0
18.10.2019 19:00:00 12,5 9,2 58 31 76 41 SW 1001,4 0
18.10.2019 18:00:00 12,9 9,6 58 31 72 39 SW 1000,4 6
18.10.2019 17:00:00 13,2 9,3 58 31 - - SSW 999,7 12
18.10.2019 16:00:00 13,2 10,9 43 23 61 33 SSW 999,5 0
18.10.2019 15:00:00 14,0 13,1 36 19 - - S 1000,3 6
18.10.2019 14:00:00 14,9 12,2 36 19 - - SSE 1000,5 30
18.10.2019 13:00:00 13,9 12,4 36 19 - - S 1001,9 54
18.10.2019 12:00:00 13,7 12,0 40 21 47 25 S 1003,0 12
18.10.2019 11:00:00 13,3 12,2 40 21 - - S 1003,6 0
18.10.2019 10:00:00 12,8 12,2 40 21 47 25 S 1004,0 0
18.10.2019 09:00:00 12,5 12,5 36 19 - - SSE 1004,6 0
18.10.2019 08:00:00 12,5 12,4 32 18 - - S 1004,8 0
18.10.2019 07:00:00 12,0 11,2 29 16 - - S 1005,5 0
18.10.2019 06:00:00 11,6 10,9 29 16 - - S 1006,5 0
18.10.2019 05:00:00 12,1 11,1 29 16 - - SSW 1006,8 0
18.10.2019 04:00:00 12,3 12,0 22 12 - - S 1007,2 0
18.10.2019 03:00:00 12,5 11,6 18 10 - - S 1007,4 0
18.10.2019 02:00:00 12,6 12,5 22 12 - - S 1007,9 0
18.10.2019 01:00:00 12,7 12,6 25 14 - - S 1008,1 0
18.10.2019 00:00:00 12,9 12,6 29 16 - - S 1008,1 0
17.10.2019 23:00:00 13,5 12,1 25 14 - - SSE 1008,8 0
17.10.2019 22:00:00 14,0 11,2 25 14 - - SSE 1008,8 0
17.10.2019 21:00:00 14,2 10,4 22 12 - - SSE 1009,4 0
17.10.2019 20:00:00 14,0 10,0 22 12 - - SSE 1009,4 0
17.10.2019 19:00:00 14,1 8,8 11 6 - - SSE 1009,7 12
17.10.2019 18:00:00 14,3 8,1 7 4 - - WSW 1009,8 54
17.10.2019 17:00:00 14,4 8,3 22 12 - - W 1009,8 48
17.10.2019 16:00:00 14,4 7,5 29 16 - - W 1009,7 24
17.10.2019 15:00:00 14,0 10,3 22 12 - - WSW 1009,6 48
17.10.2019 14:00:00 13,5 11,8 18 10 - - SW 1009,2 48
17.10.2019 13:00:00 13,0 11,4 18 10 - - SW 1008,9 6
17.10.2019 12:00:00 12,8 10,6 22 12 - - WSW 1008,8 0
17.10.2019 11:00:00 12,3 12,3 18 10 - - W 1008,0 0
17.10.2019 10:00:00 12,3 12,3 29 16 - - W 1007,4 0
17.10.2019 09:00:00 13,2 13,2 29 16 - - SW 1006,7 0
17.10.2019 08:00:00 13,5 13,5 29 16 - - SSW 1005,6 0
17.10.2019 07:00:00 13,4 13,4 29 16 - - SSW 1005,2 0
17.10.2019 06:00:00 13,6 13,6 32 18 - - SSW 1005,2 0

tt = temperature
td = dewpoint
ff = wind speed
fx = gusts
dd = wind direction
ppp = reduced air pressure
sd = sunshine duration

Next stations